In Rescue
 
Open Full Screen Window  High Contrast Mode
July 25, 2021 8:42 AM EDT
Weather Information
Wind Direction
  ---
Wind Speed
  00 kt (0 mph)
Wind Gust
  00 kt (0 mph)
Altimeter
29.95 in
Visibility
10 SM
Temperature
24° C
75° F
Dewpoint
22° C
72° F
Humidity
89%
Sky Condition
Clear
VFR

METAR KHAI 251242Z AUTO 00000KT 10SM CLR 24/22 A2995 RMK AO2 T02350220

FAA Disclaimer: The data displayed is for advisory purposes only and is not to be used for flight planning or operations.